Time;durP1;ratioP1;P1;durP2;ratioP2;P2;SDS_P1;SDS_P2;PMS_P1;PMS_P2;Temp;Humidity;BMP_temperature;BMP_pressure;BME280_temperature;BME280_humidity;BME280_pressure;Samples;Min_cycle;Max_cycle;Signal;HPM_P1;HPM_P2
2023/07/08 00:01:32;;;;;;;;;;;;;;;13.82;69.00;101154.59;105577;1266;74222;-48
2023/07/08 00:04:03;;;;;;;;;;;;;;;13.78;69.02;101149.85;105491;1257;83686;-47
2023/07/08 00:06:31;;;;;;;;;;;;;;;13.76;69.17;101149.40;105499;1257;73513;-47
2023/07/08 00:08:59;;;;;;;;;;;;;;;13.71;69.31;101149.56;105499;1257;70230;-46
2023/07/08 00:11:28;;;;;;;;;;;;;;;13.68;69.57;101141.62;105530;1256;69995;-47
2023/07/08 00:13:56;;;;;;;;;;;;;;;13.66;69.60;101142.76;105411;1260;74413;-47
2023/07/08 00:16:24;;;;;;;;;;;;;;;13.63;69.65;101140.05;105447;1260;82499;-46
2023/07/08 00:18:53;;;;;;;;;;;;;;;13.58;69.85;101134.61;105498;1258;73789;-47
2023/07/08 00:21:21;;;;;;;;;;;;;;;13.55;69.86;101138.61;105463;1257;69860;-47
2023/07/08 00:23:50;;;;;;;;;;;;;;;13.51;70.07;101136.46;105711;1256;70299;-47
2023/07/08 00:26:22;;;;;;;;;;;;;;;13.47;70.15;101137.99;105528;1264;74531;-46
2023/07/08 00:28:51;;;;;;;;;;;;;;;13.44;70.01;101138.84;105580;1257;82378;-48
2023/07/08 00:31:23;;;;;;;;;;;;;;;13.40;70.24;101140.57;105499;1256;73159;-47
2023/07/08 00:33:55;;;;;;;;;;;;;;;13.35;70.54;101140.38;105437;1257;69998;-48
2023/07/08 00:36:27;;;;;;;;;;;;;;;13.31;70.29;101136.66;105302;1257;70006;-46
2023/07/08 00:38:56;;;;;;;;;;;;;;;13.27;70.52;101138.56;105505;1254;73766;-47
2023/07/08 00:41:32;;;;;;;;;;;;;;;13.24;70.63;101134.64;105621;1258;83371;-46
2023/07/08 00:44:00;;;;;;;;;;;;;;;13.19;70.70;101134.96;105462;1266;71826;-46
2023/07/08 00:46:29;;;;;;;;;;;;;;;13.15;70.86;101134.21;105454;1257;70116;-45
2023/07/08 00:49:00;;;;;;;;;;;;;;;13.14;71.05;101131.29;105531;1257;69886;-51
2023/07/08 00:51:28;;;;;;;;;;;;;;;13.13;71.24;101126.23;105539;1257;73556;-48
2023/07/08 00:53:57;;;;;;;;;;;;;;;13.12;71.34;101128.73;105436;1254;82603;-49
2023/07/08 00:56:26;;;;;;;;;;;;;;;13.11;71.54;101130.14;105400;1261;73681;-48
2023/07/08 00:58:59;;;;;;;;;;;;;;;13.09;71.60;101128.31;105543;1257;70020;-47
2023/07/08 01:01:28;;;;;;;;;;;;;;;13.06;71.78;101125.63;105530;1256;69914;-47
2023/07/08 01:04:01;;;;;;;;;;;;;;;13.03;71.99;101125.71;105566;1256;73895;-47
2023/07/08 01:06:33;;;;;;;;;;;;;;;13.01;72.20;101127.71;105670;1257;85143;-47
2023/07/08 01:09:02;;;;;;;;;;;;;;;13.01;72.39;101123.52;105534;1257;73881;-47
2023/07/08 01:11:31;;;;;;;;;;;;;;;13.00;72.33;101123.56;105565;1256;70100;-47
2023/07/08 01:14:00;;;;;;;;;;;;;;;12.97;72.26;101124.34;105661;1255;69875;-47
2023/07/08 01:16:28;;;;;;;;;;;;;;;12.93;72.25;101123.96;105475;1260;73978;-46
2023/07/08 01:18:57;;;;;;;;;;;;;;;12.91;72.28;101122.46;105509;1257;82482;-47
2023/07/08 01:21:53;;;;;;;;;;;;;;;12.89;72.59;101120.25;105465;1257;72792;-48
2023/07/08 01:24:21;;;;;;;;;;;;;;;12.90;72.78;101121.10;105544;1257;70261;-47
2023/07/08 01:26:49;;;;;;;;;;;;;;;12.88;72.73;101115.88;105494;1266;69915;-47
2023/07/08 01:29:17;;;;;;;;;;;;;;;12.87;72.85;101113.63;105509;1254;74798;-46
2023/07/08 01:31:48;;;;;;;;;;;;;;;12.86;72.95;101114.39;105503;1255;83766;-48
2023/07/08 01:34:17;;;;;;;;;;;;;;;12.83;72.89;101114.66;105444;1267;72166;-48
2023/07/08 01:36:50;;;;;;;;;;;;;;;12.81;73.16;101112.98;105357;1263;69977;-46
2023/07/08 01:39:19;;;;;;;;;;;;;;;12.80;73.16;101110.23;105328;1257;69921;-47
2023/07/08 01:41:47;;;;;;;;;;;;;;;12.80;73.29;101108.63;105530;1254;74073;-48
2023/07/08 01:44:28;;;;;;;;;;;;;;;12.79;73.49;101108.47;105617;1257;82260;-47
2023/07/08 01:47:00;;;;;;;;;;;;;;;12.80;73.84;101108.96;105477;1256;73075;-47
2023/07/08 01:49:28;;;;;;;;;;;;;;;12.78;73.70;101109.76;105442;1255;69925;-49
2023/07/08 01:51:57;;;;;;;;;;;;;;;12.77;73.81;101111.02;105366;1258;70008;-47
2023/07/08 01:54:26;;;;;;;;;;;;;;;12.76;74.05;101112.45;105520;1257;75315;-47
2023/07/08 01:56:56;;;;;;;;;;;;;;;12.74;74.01;101118.15;105432;1257;85471;-47
2023/07/08 01:59:24;;;;;;;;;;;;;;;12.69;73.78;101115.15;105505;1255;73434;-47
2023/07/08 02:01:56;;;;;;;;;;;;;;;12.66;73.77;101117.89;105447;1257;69944;-47
2023/07/08 02:04:25;;;;;;;;;;;;;;;12.62;73.71;101117.67;105441;1256;69992;-47
2023/07/08 02:06:54;;;;;;;;;;;;;;;12.57;73.78;101116.29;105494;1256;73961;-47
2023/07/08 02:09:23;;;;;;;;;;;;;;;12.53;73.70;101118.13;105550;1255;82733;-47
2023/07/08 02:11:52;;;;;;;;;;;;;;;12.51;74.04;101117.34;105532;1257;72671;-47
2023/07/08 02:14:20;;;;;;;;;;;;;;;12.49;74.15;101114.77;105544;1257;69813;-47
2023/07/08 02:16:48;;;;;;;;;;;;;;;12.49;74.36;101114.77;105501;1256;69989;-46
2023/07/08 02:19:17;;;;;;;;;;;;;;;12.49;74.77;101113.02;105591;1255;74674;-48
2023/07/08 02:21:45;;;;;;;;;;;;;;;12.48;74.52;101113.73;105582;1254;82550;-46
2023/07/08 02:24:16;;;;;;;;;;;;;;;12.48;74.66;101113.42;105378;1260;72005;-46
2023/07/08 02:26:47;;;;;;;;;;;;;;;12.47;74.61;101115.19;105376;1261;69955;-46
2023/07/08 02:29:15;;;;;;;;;;;;;;;12.46;74.54;101114.71;105493;1258;71360;-46
2023/07/08 02:31:43;;;;;;;;;;;;;;;12.45;74.88;101115.07;105537;1255;73966;-46
2023/07/08 02:34:12;;;;;;;;;;;;;;;12.46;74.91;101112.06;105211;1259;82591;-46
2023/07/08 02:36:41;;;;;;;;;;;;;;;12.46;75.12;101114.51;105473;1256;73897;-47
2023/07/08 02:39:10;;;;;;;;;;;;;;;12.47;75.27;101112.56;105557;1254;69871;-46
2023/07/08 02:41:40;;;;;;;;;;;;;;;12.48;75.39;101109.56;105517;1254;69913;-46
2023/07/08 02:44:08;;;;;;;;;;;;;;;12.47;75.46;101111.32;105509;1256;73693;-45
2023/07/08 02:46:36;;;;;;;;;;;;;;;12.46;75.43;101111.71;105463;1257;82604;-45
2023/07/08 02:49:07;;;;;;;;;;;;;;;12.45;75.65;101112.95;105503;1257;72931;-46
2023/07/08 02:51:35;;;;;;;;;;;;;;;12.46;75.67;101111.02;105608;1258;70341;-46
2023/07/08 02:54:03;;;;;;;;;;;;;;;12.45;75.75;101112.11;105242;1257;69995;-46
2023/07/08 02:56:31;;;;;;;;;;;;;;;12.44;75.69;101111.80;105501;1253;74655;-46
2023/07/08 02:59:00;;;;;;;;;;;;;;;12.41;75.69;101114.16;105556;1254;83612;-46
2023/07/08 03:01:28;;;;;;;;;;;;;;;12.42;75.95;101114.99;105454;1257;73282;-46
2023/07/08 03:03:59;;;;;;;;;;;;;;;12.41;75.80;101113.11;105524;1257;70325;-46
2023/07/08 03:06:28;;;;;;;;;;;;;;;12.38;75.79;101113.56;105407;1255;70197;-45
2023/07/08 03:08:56;;;;;;;;;;;;;;;12.36;75.81;101113.81;105604;1257;75049;-45
2023/07/08 03:11:24;;;;;;;;;;;;;;;12.34;75.99;101112.29;105500;1254;83476;-46
2023/07/08 03:13:53;;;;;;;;;;;;;;;12.34;76.14;101111.08;105546;1256;73774;-46
2023/07/08 03:16:21;;;;;;;;;;;;;;;12.34;76.25;101111.61;105454;1255;70440;-47
2023/07/08 03:18:50;;;;;;;;;;;;;;;12.33;76.11;101114.42;105530;1254;69901;-45
2023/07/08 03:21:21;;;;;;;;;;;;;;;12.33;76.46;101117.41;105621;1257;74718;-46
2023/07/08 03:23:49;;;;;;;;;;;;;;;12.35;76.42;101117.51;105564;1257;83822;-46
2023/07/08 03:26:22;;;;;;;;;;;;;;;12.36;76.68;101114.86;105573;1254;73815;-47
2023/07/08 03:28:51;;;;;;;;;;;;;;;12.35;76.48;101119.09;105402;1262;70065;-46
2023/07/08 03:31:19;;;;;;;;;;;;;;;12.37;76.75;101118.17;105463;1257;69976;-47
2023/07/08 03:33:49;;;;;;;;;;;;;;;12.39;76.81;101116.18;105454;1257;74829;-45
2023/07/08 03:36:22;;;;;;;;;;;;;;;12.41;76.82;101115.75;105512;1254;83182;-47
2023/07/08 03:38:51;;;;;;;;;;;;;;;12.44;76.95;101112.31;105517;1253;72728;-46
2023/07/08 03:41:19;;;;;;;;;;;;;;;12.47;77.08;101108.34;105457;1254;69793;-47
2023/07/08 03:43:50;;;;;;;;;;;;;;;12.50;77.05;101111.92;105442;1257;70024;-48
2023/07/08 03:46:23;;;;;;;;;;;;;;;12.51;77.28;101113.32;105421;1259;74818;-47
2023/07/08 03:48:52;;;;;;;;;;;;;;;12.53;77.36;101116.58;105527;1256;83556;-46
2023/07/08 03:51:25;;;;;;;;;;;;;;;12.57;77.55;101114.34;105385;1260;73530;-46
2023/07/08 03:53:53;;;;;;;;;;;;;;;12.62;77.50;101111.70;105266;1254;69990;-47
2023/07/08 03:56:22;;;;;;;;;;;;;;;12.68;77.68;101111.52;105521;1258;69950;-47
2023/07/08 03:58:51;;;;;;;;;;;;;;;12.74;77.62;101116.39;105470;1254;75059;-46
2023/07/08 04:01:23;;;;;;;;;;;;;;;12.80;77.89;101114.42;105465;1254;83251;-47
2023/07/08 04:03:53;;;;;;;;;;;;;;;12.89;78.12;101113.40;105517;1254;73557;-47
2023/07/08 04:06:21;;;;;;;;;;;;;;;12.97;78.09;101112.61;105684;1256;69979;-46
2023/07/08 04:08:49;;;;;;;;;;;;;;;13.04;78.24;101107.27;105521;1257;69995;-48
2023/07/08 04:11:19;;;;;;;;;;;;;;;13.12;78.28;101103.80;105554;1254;74321;-47
2023/07/08 04:13:47;;;;;;;;;;;;;;;13.20;78.52;101099.83;105689;1254;83313;-46
2023/07/08 04:16:28;;;;;;;;;;;;;;;13.30;78.63;101105.80;105490;1254;72795;-47
2023/07/08 04:18:56;;;;;;;;;;;;;;;13.43;78.94;101104.64;105523;1258;69866;-47
2023/07/08 04:21:25;;;;;;;;;;;;;;;13.56;79.10;101108.17;105542;1257;70004;-47
2023/07/08 04:23:53;;;;;;;;;;;;;;;13.69;79.34;101107.50;105616;1254;72811;-48
2023/07/08 04:26:21;;;;;;;;;;;;;;;13.82;79.47;101111.20;105542;1257;82637;-49
2023/07/08 04:28:50;;;;;;;;;;;;;;;13.93;79.44;101107.42;105533;1257;73744;-49
2023/07/08 04:31:18;;;;;;;;;;;;;;;14.03;79.35;101108.11;105492;1257;69961;-47
2023/07/08 04:33:46;;;;;;;;;;;;;;;14.13;79.21;101108.75;105529;1254;69982;-46
2023/07/08 04:36:15;;;;;;;;;;;;;;;14.23;79.18;101102.19;105504;1257;74888;-49
2023/07/08 04:38:46;;;;;;;;;;;;;;;14.33;79.22;101103.90;105457;1254;83583;-49
2023/07/08 04:41:15;;;;;;;;;;;;;;;14.43;79.13;101105.24;105496;1254;73724;-47
2023/07/08 04:43:43;;;;;;;;;;;;;;;14.53;79.18;101102.90;105442;1257;71358;-47
2023/07/08 04:46:23;;;;;;;;;;;;;;;14.63;78.98;101103.01;105525;1254;69921;-47
2023/07/08 04:48:51;;;;;;;;;;;;;;;14.75;78.77;101099.14;105807;1257;73641;-46
2023/07/08 04:51:19;;;;;;;;;;;;;;;14.86;78.75;101100.77;105751;1256;83857;-47
2023/07/08 04:53:48;;;;;;;;;;;;;;;14.99;78.74;101101.11;105534;1254;73936;-46
2023/07/08 04:56:17;;;;;;;;;;;;;;;15.12;78.82;101100.66;105646;1256;70106;-46
2023/07/08 04:58:45;;;;;;;;;;;;;;;15.24;78.77;101100.65;105477;1254;69881;-47
2023/07/08 05:01:13;;;;;;;;;;;;;;;15.37;78.59;101099.38;105492;1256;75161;-49
2023/07/08 05:03:41;;;;;;;;;;;;;;;15.49;78.28;101103.58;105439;1254;83624;-47
2023/07/08 05:06:10;;;;;;;;;;;;;;;15.59;78.13;101096.41;105525;1254;73766;-46
2023/07/08 05:08:38;;;;;;;;;;;;;;;15.72;77.95;101096.40;105451;1254;69858;-47
2023/07/08 05:11:06;;;;;;;;;;;;;;;15.86;77.80;101097.68;105517;1253;69867;-47
2023/07/08 05:13:34;;;;;;;;;;;;;;;15.98;77.59;101100.21;105797;1254;74792;-47
2023/07/08 05:16:03;;;;;;;;;;;;;;;16.12;77.44;101100.95;105621;1256;83583;-49
2023/07/08 05:18:31;;;;;;;;;;;;;;;16.28;77.27;101098.96;105643;1256;73743;-49
2023/07/08 05:20:59;;;;;;;;;;;;;;;16.43;76.99;101096.42;105544;1253;69868;-47
2023/07/08 05:23:28;;;;;;;;;;;;;;;16.58;76.91;101097.43;105521;1252;70036;-47
2023/07/08 05:25:59;;;;;;;;;;;;;;;16.73;76.49;101099.52;105868;1254;74902;-48
2023/07/08 05:28:27;;;;;;;;;;;;;;;16.85;75.60;101096.44;105884;1254;83568;-48
2023/07/08 05:30:55;;;;;;;;;;;;;;;16.96;75.14;101091.60;105728;1256;74523;-47
2023/07/08 05:33:24;;;;;;;;;;;;;;;17.09;74.31;101095.19;105642;1256;69960;-46
2023/07/08 05:35:53;;;;;;;;;;;;;;;17.21;73.64;101094.36;105910;1253;70304;-46
2023/07/08 05:38:21;;;;;;;;;;;;;;;17.34;73.06;101099.48;106078;1254;73810;-45
2023/07/08 05:40:50;;;;;;;;;;;;;;;17.46;72.77;101097.94;106037;1256;83319;-44
2023/07/08 05:43:19;;;;;;;;;;;;;;;17.57;72.23;101098.02;105872;1254;72812;-48
2023/07/08 05:45:47;;;;;;;;;;;;;;;17.69;71.68;101098.98;105561;1253;69899;-45
2023/07/08 05:48:32;;;;;;;;;;;;;;;17.81;71.26;101097.45;105939;1256;69940;-44
2023/07/08 05:51:00;;;;;;;;;;;;;;;17.92;70.94;101096.88;105537;1257;74905;-45
2023/07/08 05:53:29;;;;;;;;;;;;;;;18.05;70.86;101096.79;105582;1256;83147;-45
2023/07/08 05:55:57;;;;;;;;;;;;;;;18.20;70.40;101100.92;105606;1256;74162;-45
2023/07/08 05:58:25;;;;;;;;;;;;;;;18.31;70.49;101095.50;105482;1254;69864;-47
2023/07/08 06:00:55;;;;;;;;;;;;;;;18.44;70.13;101099.34;105470;1254;69816;-45
2023/07/08 06:03:23;;;;;;;;;;;;;;;18.56;69.58;101100.80;105617;1256;73605;-46
2023/07/08 06:05:52;;;;;;;;;;;;;;;18.66;69.03;101100.86;105892;1254;83350;-47
2023/07/08 06:08:20;;;;;;;;;;;;;;;18.78;69.10;101100.38;105689;1256;73920;-45
2023/07/08 06:10:49;;;;;;;;;;;;;;;18.89;69.00;101099.14;105490;1254;69804;-47
2023/07/08 06:13:17;;;;;;;;;;;;;;;19.02;68.38;101096.99;105514;1256;69976;-44
2023/07/08 06:15:45;;;;;;;;;;;;;;;19.12;68.22;101097.36;105728;1256;73862;-44
2023/07/08 06:18:14;;;;;;;;;;;;;;;19.26;67.91;101094.91;105835;1255;81597;-46
2023/07/08 06:20:50;;;;;;;;;;;;;;;19.39;68.05;101095.18;105593;1256;73818;-44
2023/07/08 06:23:18;;;;;;;;;;;;;;;19.52;68.12;101097.88;105624;1254;69897;-45
2023/07/08 06:25:46;;;;;;;;;;;;;;;19.66;67.93;101095.83;105713;1257;69998;-45
2023/07/08 06:28:14;;;;;;;;;;;;;;;19.78;67.97;101098.23;105643;1257;75095;-45
2023/07/08 06:30:43;;;;;;;;;;;;;;;19.89;67.76;101095.39;105678;1256;83796;-46
2023/07/08 06:33:11;;;;;;;;;;;;;;;20.00;67.64;101097.66;105685;1253;73453;-44
2023/07/08 06:35:40;;;;;;;;;;;;;;;20.11;67.23;101092.87;105693;1257;69995;-47
2023/07/08 06:38:08;;;;;;;;;;;;;;;20.22;66.95;101095.17;105759;1256;69963;-46
2023/07/08 06:40:37;;;;;;;;;;;;;;;20.33;66.65;101089.67;105793;1253;74700;-45
2023/07/08 06:43:06;;;;;;;;;;;;;;;20.42;66.31;101088.65;105629;1256;84031;-44
2023/07/08 06:45:43;;;;;;;;;;;;;;;20.55;66.27;101090.52;105636;1256;72715;-45
2023/07/08 06:48:11;;;;;;;;;;;;;;;20.69;66.36;101093.27;105721;1256;69874;-45
2023/07/08 06:50:41;;;;;;;;;;;;;;;20.79;65.70;101093.32;105605;1252;69826;-47
2023/07/08 06:53:09;;;;;;;;;;;;;;;20.91;64.66;101089.99;105644;1257;73503;-45
2023/07/08 06:55:37;;;;;;;;;;;;;;;21.07;64.86;101087.23;105558;1254;82606;-45
2023/07/08 06:58:05;;;;;;;;;;;;;;;21.18;64.47;101089.48;105439;1254;73921;-45
2023/07/08 07:00:34;;;;;;;;;;;;;;;21.32;64.06;101091.91;105501;1257;69887;-48
2023/07/08 07:03:02;;;;;;;;;;;;;;;21.49;64.05;101093.59;105642;1256;69994;-47
2023/07/08 07:05:30;;;;;;;;;;;;;;;21.64;63.85;101095.13;105676;1254;74652;-45
2023/07/08 07:07:59;;;;;;;;;;;;;;;21.79;63.51;101094.05;105679;1256;83306;-47
2023/07/08 07:10:27;;;;;;;;;;;;;;;21.90;62.61;101098.10;105662;1257;73532;-47
2023/07/08 07:12:55;;;;;;;;;;;;;;;22.02;61.54;101097.70;105707;1256;69892;-45
2023/07/08 07:15:24;;;;;;;;;;;;;;;22.17;60.64;101095.20;105791;1253;69967;-46
2023/07/08 07:17:53;;;;;;;;;;;;;;;22.33;60.54;101092.74;105933;1254;74904;-47
2023/07/08 07:20:21;;;;;;;;;;;;;;;22.48;59.84;101091.45;105696;1256;83214;-46
2023/07/08 07:22:51;;;;;;;;;;;;;;;22.63;58.91;101094.92;105693;1256;73662;-46
2023/07/08 07:25:20;;;;;;;;;;;;;;;22.79;58.20;101098.67;105700;1253;69878;-45
2023/07/08 07:27:48;;;;;;;;;;;;;;;22.94;57.64;101102.11;105820;1254;69966;-45
2023/07/08 07:30:16;;;;;;;;;;;;;;;23.10;57.06;101102.48;105418;1256;161455;-46
2023/07/08 07:32:45;;;;;;;;;;;;;;;23.25;56.47;101107.27;105548;1254;82141;-46
2023/07/08 07:35:14;;;;;;;;;;;;;;;23.36;55.52;101106.89;105627;1256;73389;-46
2023/07/08 07:37:43;;;;;;;;;;;;;;;23.45;55.12;101107.27;105675;1256;70100;-45
2023/07/08 07:40:12;;;;;;;;;;;;;;;23.55;54.94;101109.29;105664;1256;70044;-46
2023/07/08 07:42:41;;;;;;;;;;;;;;;23.71;54.25;101106.94;105644;1256;73885;-49
2023/07/08 07:45:10;;;;;;;;;;;;;;;23.82;53.43;101103.01;105706;1256;82337;-45
2023/07/08 07:47:38;;;;;;;;;;;;;;;23.91;53.30;101105.55;105621;1254;73339;-45
2023/07/08 07:50:07;;;;;;;;;;;;;;;24.00;52.71;101104.93;105564;1254;69900;-46
2023/07/08 07:52:36;;;;;;;;;;;;;;;24.10;52.09;101102.69;105808;1252;69993;-45
2023/07/08 07:55:04;;;;;;;;;;;;;;;24.18;51.56;101102.57;105599;1257;75164;-46
2023/07/08 07:57:32;;;;;;;;;;;;;;;24.26;51.42;101105.08;105644;1256;83587;-45
2023/07/08 08:00:01;;;;;;;;;;;;;;;24.38;51.49;101100.73;105561;1253;72781;-45
2023/07/08 08:02:40;;;;;;;;;;;;;;;24.56;51.77;101094.46;105646;1252;69982;-45
2023/07/08 08:05:09;;;;;;;;;;;;;;;24.74;51.80;101093.25;105806;1256;69966;-45
2023/07/08 08:07:37;;;;;;;;;;;;;;;24.97;51.76;101092.86;105748;1253;74831;-48
2023/07/08 08:10:06;;;;;;;;;;;;;;;25.16;51.10;101088.37;105597;1256;83785;-46
2023/07/08 08:12:34;;;;;;;;;;;;;;;25.30;50.96;101093.02;105641;1254;74035;-45
2023/07/08 08:15:21;;;;;;;;;;;;;;;25.45;50.45;101095.28;105745;1254;69909;-45
2023/07/08 08:17:51;;;;;;;;;;;;;;;25.59;50.01;101099.56;105701;1253;70306;-46
2023/07/08 08:20:22;;;;;;;;;;;;;;;25.71;49.28;101093.71;105773;1254;75152;-45
2023/07/08 08:22:50;;;;;;;;;;;;;;;25.84;49.07;101094.69;105808;1256;83517;-50
2023/07/08 08:25:20;;;;;;;;;;;;;;;25.99;47.98;101095.09;105738;1254;73977;-45
2023/07/08 08:27:48;;;;;;;;;;;;;;;26.16;47.30;101097.32;105636;1254;69980;-45
2023/07/08 08:30:16;;;;;;;;;;;;;;;26.31;47.03;101095.91;105682;1254;69979;-46
2023/07/08 08:32:45;;;;;;;;;;;;;;;26.46;46.58;101084.70;105701;1253;74740;-46
2023/07/08 08:35:13;;;;;;;;;;;;;;;26.61;45.72;101089.26;105456;1254;83536;-50
2023/07/08 08:37:42;;;;;;;;;;;;;;;26.73;44.63;101089.68;105645;1256;73650;-47
2023/07/08 08:40:15;;;;;;;;;;;;;;;26.80;44.22;101091.58;105655;1253;69884;-46
2023/07/08 08:42:51;;;;;;;;;;;;;;;26.87;43.71;101091.81;105535;1256;70313;-46
2023/07/08 08:45:20;;;;;;;;;;;;;;;26.87;42.62;101094.12;105567;1256;73866;-45
2023/07/08 08:47:50;;;;;;;;;;;;;;;26.83;42.21;101096.66;105547;1253;82874;-46
2023/07/08 08:50:24;;;;;;;;;;;;;;;26.93;42.39;101096.96;105740;1257;74153;-46
2023/07/08 08:52:54;;;;;;;;;;;;;;;27.12;42.46;101096.95;105659;1255;69968;-47
2023/07/08 08:55:26;;;;;;;;;;;;;;;27.31;41.92;101096.95;105444;1256;70015;-46
2023/07/08 08:58:07;;;;;;;;;;;;;;;27.46;41.46;101093.50;105740;1254;74765;-46
2023/07/08 09:00:38;;;;;;;;;;;;;;;27.57;40.84;101092.08;105421;1252;83758;-46
2023/07/08 09:03:11;;;;;;;;;;;;;;;27.64;40.70;101092.77;105571;1254;74167;-45
2023/07/08 09:05:41;;;;;;;;;;;;;;;27.75;40.00;101093.54;105601;1256;69884;-47
2023/07/08 09:08:12;;;;;;;;;;;;;;;27.82;40.03;101092.11;105541;1256;69996;-46
2023/07/08 09:10:47;;;;;;;;;;;;;;;27.94;39.57;101084.87;105560;1254;75056;-47
2023/07/08 09:13:17;;;;;;;;;;;;;;;28.03;39.04;101082.15;105408;1254;83291;-46
2023/07/08 09:15:45;;;;;;;;;;;;;;;28.09;38.35;101083.36;105412;1253;72999;-47
2023/07/08 09:18:21;;;;;;;;;;;;;;;28.11;38.12;101085.16;105509;1253;69970;-46
2023/07/08 09:20:49;;;;;;;;;;;;;;;28.21;38.08;101080.48;105855;1254;69986;-47
2023/07/08 09:23:22;;;;;;;;;;;;;;;28.36;37.91;101079.86;105513;1254;75028;-46
2023/07/08 09:25:50;;;;;;;;;;;;;;;28.52;37.66;101075.02;105595;1252;83628;-47
2023/07/08 09:28:19;;;;;;;;;;;;;;;28.62;37.20;101068.17;105794;1254;73441;-47
2023/07/08 09:30:50;;;;;;;;;;;;;;;28.73;36.61;101070.95;105766;1254;70044;-47
2023/07/08 09:33:19;;;;;;;;;;;;;;;28.82;35.95;101069.13;105507;1256;69886;-47
2023/07/08 09:35:47;;;;;;;;;;;;;;;28.87;36.02;101068.71;105610;1254;74842;-45
2023/07/08 09:38:17;;;;;;;;;;;;;;;29.01;35.89;101067.85;105664;1256;83119;-47
2023/07/08 09:40:49;;;;;;;;;;;;;;;29.06;35.50;101068.97;105481;1253;73283;-47
2023/07/08 09:43:23;;;;;;;;;;;;;;;29.10;35.40;101064.41;105541;1253;69982;-47
2023/07/08 09:45:52;;;;;;;;;;;;;;;29.19;35.05;101060.23;105505;1256;70542;-47
2023/07/08 09:48:27;;;;;;;;;;;;;;;29.28;35.00;101060.27;105332;1253;74831;-47
2023/07/08 09:50:56;;;;;;;;;;;;;;;29.46;35.34;101059.52;105517;1257;83324;-47
2023/07/08 09:53:26;;;;;;;;;;;;;;;29.61;34.73;101057.91;105465;1254;72642;-47
2023/07/08 09:55:58;;;;;;;;;;;;;;;29.73;34.83;101051.92;105492;1253;69928;-47
2023/07/08 09:58:31;;;;;;;;;;;;;;;29.90;34.56;101050.77;105377;1251;70008;-47
2023/07/08 10:01:01;;;;;;;;;;;;;;;30.04;34.19;101054.56;105566;1252;75020;-47
2023/07/08 10:03:33;;;;;;;;;;;;;;;30.17;33.65;101055.98;105734;1254;82421;-47
2023/07/08 10:06:05;;;;;;;;;;;;;;;30.29;33.19;101051.11;105495;1253;73951;-47
2023/07/08 10:08:38;;;;;;;;;;;;;;;30.44;33.01;101049.40;105453;1254;69934;-48
2023/07/08 10:11:09;;;;;;;;;;;;;;;30.61;32.87;101049.45;105546;1253;70004;-48
2023/07/08 10:13:38;;;;;;;;;;;;;;;30.70;31.94;101051.15;105546;1252;74940;-47
2023/07/08 10:16:16;;;;;;;;;;;;;;;30.79;31.92;101049.65;105578;1254;82722;-48
2023/07/08 10:18:44;;;;;;;;;;;;;;;30.95;31.52;101046.44;105523;1256;73897;-47
2023/07/08 10:21:12;;;;;;;;;;;;;;;30.99;31.18;101043.24;105525;1256;69989;-47
2023/07/08 10:23:40;;;;;;;;;;;;;;;31.14;31.26;101042.73;105521;1256;70386;-48
2023/07/08 10:26:38;;;;;;;;;;;;;;;31.32;31.06;101039.84;105566;1254;73902;-47
2023/07/08 10:29:07;;;;;;;;;;;;;;;31.51;30.73;101040.13;105361;1256;83718;-48
2023/07/08 10:31:38;;;;;;;;;;;;;;;31.66;30.20;101039.33;105502;1254;73891;-47
2023/07/08 10:34:23;;;;;;;;;;;;;;;31.85;30.27;101039.98;105516;1253;69854;-48
2023/07/08 10:36:53;;;;;;;;;;;;;;;32.00;29.90;101039.14;105582;1254;69823;-47
2023/07/08 10:39:24;;;;;;;;;;;;;;;32.14;29.38;101039.17;105501;1254;73838;-48
2023/07/08 10:41:53;;;;;;;;;;;;;;;32.41;29.26;101033.15;105437;1257;83646;-48
2023/07/08 10:44:23;;;;;;;;;;;;;;;32.73;29.18;101027.17;105519;1254;73693;-48
2023/07/08 10:46:51;;;;;;;;;;;;;;;33.08;29.24;101023.66;105555;1254;69934;-47
2023/07/08 10:49:29;;;;;;;;;;;;;;;33.37;28.91;101021.95;105536;1256;69888;-47
2023/07/08 10:51:57;;;;;;;;;;;;;;;33.55;29.02;101019.06;105509;1257;75082;-48
2023/07/08 10:54:44;;;;;;;;;;;;;;;33.78;28.78;101017.86;105472;1257;83254;-47
2023/07/08 10:57:15;;;;;;;;;;;;;;;34.00;28.16;101017.86;105444;1256;74027;-48
2023/07/08 10:59:48;;;;;;;;;;;;;;;34.37;28.24;101017.20;105408;1254;69883;-47
2023/07/08 11:02:31;;;;;;;;;;;;;;;34.81;28.18;101016.84;105464;1257;70025;-49
2023/07/08 11:05:05;;;;;;;;;;;;;;;35.16;27.72;101009.88;105660;1256;74992;-48
2023/07/08 11:07:40;;;;;;;;;;;;;;;35.45;27.73;101005.35;105591;1254;83482;-47
2023/07/08 11:10:14;;;;;;;;;;;;;;;35.80;27.24;101007.20;105499;1256;73033;-48
2023/07/08 11:12:46;;;;;;;;;;;;;;;36.13;26.79;101007.27;105480;1254;70490;-47
2023/07/08 11:15:15;;;;;;;;;;;;;;;36.47;26.24;101004.64;105520;1254;69989;-48
2023/07/08 11:17:46;;;;;;;;;;;;;;;36.60;26.12;101001.57;105565;1254;74589;-47
2023/07/08 11:20:17;;;;;;;;;;;;;;;36.81;25.66;100993.95;105586;1254;82638;-48
2023/07/08 11:22:50;;;;;;;;;;;;;;;37.00;25.33;100993.45;105741;1254;73613;-49
2023/07/08 11:25:19;;;;;;;;;;;;;;;37.14;24.89;100993.61;105521;1254;69977;-48
2023/07/08 11:27:49;;;;;;;;;;;;;;;37.19;24.74;100995.48;105558;1254;70430;-48
2023/07/08 11:30:20;;;;;;;;;;;;;;;37.04;24.19;100997.25;105548;1256;75058;-47
2023/07/08 11:32:48;;;;;;;;;;;;;;;37.02;24.12;100992.07;105540;1256;83420;-49
2023/07/08 11:35:18;;;;;;;;;;;;;;;36.78;23.61;100990.50;105556;1257;74066;-48
2023/07/08 11:37:46;;;;;;;;;;;;;;;36.65;23.67;100985.98;105537;1252;70012;-48
2023/07/08 11:40:19;;;;;;;;;;;;;;;36.69;23.48;100984.27;105516;1256;69995;-47
2023/07/08 11:42:51;;;;;;;;;;;;;;;36.78;23.80;100982.35;105509;1254;74811;-48
2023/07/08 11:45:30;;;;;;;;;;;;;;;37.17;23.67;100978.46;105731;1256;83856;-48
2023/07/08 11:48:05;;;;;;;;;;;;;;;37.58;23.29;100976.63;105496;1254;73705;-49
2023/07/08 11:50:38;;;;;;;;;;;;;;;38.00;23.38;100977.68;105506;1252;69881;-48
2023/07/08 11:53:07;;;;;;;;;;;;;;;38.33;22.91;100975.69;105493;1254;69887;-47
2023/07/08 11:55:38;;;;;;;;;;;;;;;38.37;22.39;100973.71;105659;1253;74857;-49
2023/07/08 11:58:08;;;;;;;;;;;;;;;38.43;22.37;100968.95;105379;1254;82524;-49
2023/07/08 12:00:36;;;;;;;;;;;;;;;38.67;22.20;100968.61;105525;1256;72986;-49
2023/07/08 12:03:25;;;;;;;;;;;;;;;38.93;22.12;100968.94;105675;1253;69929;-48
2023/07/08 12:05:53;;;;;;;;;;;;;;;39.12;21.49;100967.25;105352;1256;70024;-48
2023/07/08 12:08:21;;;;;;;;;;;;;;;39.33;21.42;100967.34;105324;1258;73952;-49
2023/07/08 12:10:51;;;;;;;;;;;;;;;39.36;21.04;100967.02;105608;1259;83612;-50
2023/07/08 12:13:20;;;;;;;;;;;;;;;39.31;20.81;100960.46;105671;1256;73169;-49
2023/07/08 12:15:49;;;;;;;;;;;;;;;39.07;20.86;100958.05;105609;1259;70018;-48
2023/07/08 12:18:32;;;;;;;;;;;;;;;38.90;21.13;100950.34;105523;1253;70039;-48
2023/07/08 12:21:03;;;;;;;;;;;;;;;38.38;20.98;100955.38;105800;1254;74554;-48
2023/07/08 12:23:31;;;;;;;;;;;;;;;37.43;21.29;100952.52;105509;1257;83313;-48
2023/07/08 12:26:00;;;;;;;;;;;;;;;36.61;21.43;100951.60;105492;1254;73877;-48
2023/07/08 12:28:28;;;;;;;;;;;;;;;35.81;22.25;100955.34;105541;1254;69894;-48
2023/07/08 12:30:59;;;;;;;;;;;;;;;35.38;22.77;100960.41;105410;1253;69935;-48
2023/07/08 12:33:29;;;;;;;;;;;;;;;35.39;22.80;100954.04;105550;1256;73795;-48
2023/07/08 12:35:57;;;;;;;;;;;;;;;35.59;22.94;100948.68;105661;1254;82462;-48
2023/07/08 12:38:39;;;;;;;;;;;;;;;35.48;23.14;100946.14;105730;1254;73583;-48
2023/07/08 12:41:17;;;;;;;;;;;;;;;35.47;23.08;100945.73;105498;1254;69977;-49